createdAt,value
2022-11-03T00:02:24.241Z,50.60
2022-11-03T00:04:50.788Z,50.50
2022-11-03T00:07:18.105Z,50.50
2022-11-03T00:09:44.552Z,50.50
2022-11-03T00:12:11.014Z,50.50
2022-11-03T00:14:37.473Z,50.40
2022-11-03T00:17:03.929Z,50.50
2022-11-03T00:31:00.164Z,50.50
2022-11-03T00:33:30.169Z,50.50
2022-11-03T00:36:00.381Z,50.50
2022-11-03T00:41:18.119Z,50.60
2022-11-03T00:43:48.191Z,50.60
2022-11-03T00:46:14.668Z,50.70
2022-11-03T00:48:41.153Z,50.70
2022-11-03T00:51:18.189Z,50.60
2022-11-03T00:53:44.689Z,50.60
2022-11-03T00:56:11.164Z,50.60
2022-11-03T00:58:42.197Z,50.60
2022-11-03T01:01:12.486Z,50.70
2022-11-03T01:03:39.088Z,50.80
2022-11-03T01:06:06.200Z,50.60
2022-11-03T01:08:48.208Z,50.60
2022-11-03T01:11:14.878Z,50.60
2022-11-03T01:13:41.346Z,50.80
2022-11-03T01:16:12.198Z,50.70
2022-11-03T01:21:22.653Z,50.70
2022-11-03T01:24:00.333Z,50.70
2022-11-03T01:29:16.967Z,50.60
2022-11-03T01:34:27.409Z,50.70
2022-11-03T01:36:53.872Z,50.80
2022-11-03T01:39:20.354Z,50.80
2022-11-03T01:42:00.403Z,50.80
2022-11-03T01:44:30.241Z,50.80
2022-11-03T01:47:00.420Z,50.70
2022-11-03T01:49:30.242Z,50.60
2022-11-03T01:51:56.714Z,50.70
2022-11-03T01:54:23.174Z,50.80
2022-11-03T01:59:42.246Z,50.70
2022-11-03T02:02:12.361Z,50.80
2022-11-03T02:07:30.248Z,50.80
2022-11-03T02:09:56.717Z,50.80
2022-11-03T02:12:23.197Z,50.90
2022-11-03T02:14:49.661Z,50.80
2022-11-03T02:17:16.141Z,50.90
2022-11-03T02:19:42.630Z,50.90
2022-11-03T02:25:04.563Z,51.10
2022-11-03T02:27:42.396Z,51.10
2022-11-03T02:35:49.854Z,50.90
2022-11-03T02:38:16.338Z,50.90
2022-11-03T02:40:48.290Z,51.00
2022-11-03T02:43:14.757Z,51.00
2022-11-03T02:45:41.243Z,51.00
2022-11-03T02:48:07.715Z,51.00
2022-11-03T02:56:15.025Z,51.00
2022-11-03T02:58:48.293Z,51.10
2022-11-03T03:01:15.037Z,51.10
2022-11-03T03:03:41.795Z,51.00
2022-11-03T03:06:12.301Z,51.00
2022-11-03T03:08:42.291Z,51.00
2022-11-03T03:11:08.769Z,51.10
2022-11-03T03:13:36.265Z,51.10
2022-11-03T03:16:02.753Z,51.20
2022-11-03T03:18:29.243Z,51.90
2022-11-03T03:20:55.720Z,51.20
2022-11-03T03:23:22.185Z,51.20
2022-11-03T03:25:54.325Z,51.20
2022-11-03T03:28:20.814Z,51.20
2022-11-03T03:30:48.313Z,51.20
2022-11-03T03:33:14.815Z,51.20
2022-11-03T03:38:32.169Z,51.00
2022-11-03T03:41:00.327Z,51.20
2022-11-03T03:43:36.320Z,51.20
2022-11-03T03:46:02.795Z,51.20
2022-11-03T03:48:29.275Z,51.30
2022-11-03T03:53:48.320Z,51.30
2022-11-03T03:59:04.770Z,51.40
2022-11-03T04:04:21.880Z,51.40
2022-11-03T04:06:54.369Z,51.50
2022-11-03T04:09:30.362Z,51.40
2022-11-03T04:11:56.855Z,51.50
2022-11-03T04:17:07.332Z,51.50
2022-11-03T04:19:42.406Z,51.60
2022-11-03T04:22:12.355Z,51.40
2022-11-03T04:24:42.370Z,51.60
2022-11-03T04:27:08.847Z,51.50
2022-11-03T04:29:35.313Z,51.60
2022-11-03T04:32:01.788Z,51.50
2022-11-03T04:34:28.256Z,51.60
2022-11-03T04:36:54.731Z,51.50
2022-11-03T04:39:30.485Z,51.40
2022-11-03T04:41:56.967Z,51.50
2022-11-03T04:44:30.563Z,51.50
2022-11-03T04:49:54.386Z,51.70
2022-11-03T04:52:24.372Z,51.70
2022-11-03T04:55:00.525Z,51.80
2022-11-03T04:57:27.003Z,51.70
2022-11-03T04:59:53.472Z,51.70
2022-11-03T05:05:12.409Z,51.90
2022-11-03T05:07:38.886Z,51.90
2022-11-03T05:10:06.386Z,51.90
2022-11-03T05:12:32.863Z,51.80
2022-11-03T05:15:00.354Z,51.70
2022-11-03T05:26:06.398Z,52.00
2022-11-03T05:28:32.878Z,52.00
2022-11-03T05:31:00.428Z,51.90
2022-11-03T05:33:30.432Z,52.00
2022-11-03T05:35:56.917Z,52.00
2022-11-03T05:38:23.377Z,51.90
2022-11-03T05:43:40.273Z,52.00
2022-11-03T05:48:38.155Z,52.00
2022-11-03T05:51:06.421Z,52.00
2022-11-03T05:56:17.005Z,52.00
2022-11-03T05:58:43.490Z,52.00
2022-11-03T06:01:09.978Z,52.00
2022-11-03T06:03:36.439Z,52.10
2022-11-03T06:06:06.453Z,52.10
2022-11-03T06:11:17.321Z,52.10
2022-11-03T06:13:48.636Z,52.00
2022-11-03T06:19:06.435Z,52.20
2022-11-03T06:21:40.483Z,52.20
2022-11-03T06:24:12.400Z,52.30
2022-11-03T06:29:29.325Z,52.80
2022-11-03T06:31:55.800Z,52.30
2022-11-03T06:34:22.286Z,52.30
2022-11-03T06:39:38.887Z,52.20
2022-11-03T06:42:06.466Z,52.10
2022-11-03T06:44:32.917Z,52.20
2022-11-03T06:49:50.102Z,52.20
2022-11-03T06:52:18.469Z,52.20
2022-11-03T06:54:46.047Z,52.30
2022-11-03T06:57:12.516Z,52.20
2022-11-03T06:59:57.014Z,52.20
2022-11-03T07:02:33.039Z,52.20
2022-11-03T07:05:00.452Z,52.10
2022-11-03T07:15:59.080Z,52.40
2022-11-03T07:18:25.546Z,52.50
2022-11-03T07:20:54.494Z,52.60
2022-11-03T07:23:20.963Z,52.60
2022-11-03T07:28:38.038Z,52.40
2022-11-03T07:31:04.512Z,52.40
2022-11-03T07:33:36.725Z,52.50
2022-11-03T07:36:15.623Z,52.50
2022-11-03T07:38:42.530Z,52.60
2022-11-03T07:41:12.520Z,52.40
2022-11-03T07:43:42.531Z,52.40
2022-11-03T07:49:00.596Z,52.60
2022-11-03T07:51:27.085Z,52.50
2022-11-03T07:53:53.583Z,52.40
2022-11-03T07:56:20.189Z,52.50
2022-11-03T07:58:48.479Z,52.60
2022-11-03T08:01:14.965Z,52.50
2022-11-03T08:03:42.488Z,52.60
2022-11-03T08:06:14.660Z,52.40
2022-11-03T08:08:54.705Z,52.40
2022-11-03T08:11:23.320Z,52.50
2022-11-03T08:14:00.566Z,52.40
2022-11-03T08:16:27.034Z,52.40
2022-11-03T08:18:53.525Z,52.60
2022-11-03T08:21:20.002Z,52.50
2022-11-03T08:23:47.836Z,52.60
2022-11-03T08:26:18.577Z,52.60
2022-11-03T08:28:54.624Z,52.40
2022-11-03T08:31:21.104Z,52.60
2022-11-03T08:33:47.564Z,52.70
2022-11-03T08:36:18.581Z,52.60
2022-11-03T08:38:48.643Z,52.70
2022-11-03T08:46:56.311Z,52.60
2022-11-03T08:49:22.776Z,52.60
2022-11-03T08:51:49.259Z,52.70
2022-11-03T08:54:15.743Z,52.60
2022-11-03T08:56:42.580Z,52.60
2022-11-03T08:59:09.052Z,52.80
2022-11-03T09:04:30.587Z,52.70
2022-11-03T09:06:57.092Z,52.70
2022-11-03T09:12:10.036Z,52.80
2022-11-03T09:14:36.505Z,52.70
2022-11-03T09:19:54.594Z,52.70
2022-11-03T09:22:24.609Z,52.70
2022-11-03T09:24:54.645Z,52.70
2022-11-03T09:27:21.156Z,52.70
2022-11-03T09:30:11.804Z,52.70
2022-11-03T09:32:34.094Z,52.70
2022-11-03T09:35:12.794Z,52.70
2022-11-03T09:37:42.629Z,52.70
2022-11-03T09:40:12.602Z,52.80
2022-11-03T09:42:42.801Z,52.70
2022-11-03T09:45:09.316Z,52.70
2022-11-03T09:47:35.781Z,52.70
2022-11-03T09:52:54.713Z,52.70
2022-11-03T09:58:12.528Z,52.80
2022-11-03T10:00:39.085Z,52.80
2022-11-03T10:03:06.881Z,52.80
2022-11-03T10:05:36.640Z,52.80
2022-11-03T10:08:06.673Z,52.80
2022-11-03T10:10:33.164Z,52.70
2022-11-03T10:12:59.645Z,52.70
2022-11-03T10:15:26.114Z,52.70
2022-11-03T10:17:54.593Z,52.70
2022-11-03T10:20:24.647Z,52.80
2022-11-03T10:22:54.813Z,52.70
2022-11-03T10:25:24.648Z,52.70
2022-11-03T10:27:54.862Z,52.60
2022-11-03T10:30:21.358Z,52.60
2022-11-03T10:32:48.619Z,52.60
2022-11-03T10:35:18.668Z,52.60
2022-11-03T10:37:54.678Z,52.60
2022-11-03T10:40:46.917Z,52.60
2022-11-03T10:48:48.675Z,52.40
2022-11-03T10:51:18.674Z,52.50
2022-11-03T10:53:45.158Z,52.50
2022-11-03T10:56:11.749Z,52.50
2022-11-03T10:58:38.192Z,52.40
2022-11-03T11:01:06.718Z,52.60
2022-11-03T11:03:42.694Z,52.50
2022-11-03T11:11:50.359Z,52.40
2022-11-03T11:14:24.716Z,52.40
2022-11-03T11:22:32.310Z,52.60
2022-11-03T11:25:06.902Z,52.40
2022-11-03T11:30:24.205Z,52.40
2022-11-03T11:33:00.739Z,52.40
2022-11-03T11:35:27.229Z,52.40
2022-11-03T11:37:54.670Z,52.40
2022-11-03T11:40:21.164Z,52.30
2022-11-03T11:42:48.673Z,52.20
2022-11-03T11:45:18.733Z,52.20
2022-11-03T11:47:48.933Z,52.20
2022-11-03T11:53:06.489Z,52.20
2022-11-03T11:58:23.091Z,52.20
2022-11-03T12:00:49.696Z,52.20
2022-11-03T12:03:24.962Z,52.40
2022-11-03T12:05:54.741Z,52.30
2022-11-03T12:08:21.221Z,52.60
2022-11-03T12:10:47.737Z,52.50
2022-11-03T12:13:16.984Z,52.50
2022-11-03T12:15:48.751Z,52.60
2022-11-03T12:18:15.216Z,52.70
2022-11-03T12:20:41.709Z,52.70
2022-11-03T12:23:12.817Z,52.70
2022-11-03T12:28:36.764Z,52.70
2022-11-03T12:31:03.274Z,52.70
2022-11-03T12:33:42.941Z,52.70
2022-11-03T12:36:12.753Z,52.70
2022-11-03T12:38:48.806Z,52.70
2022-11-03T12:41:15.339Z,52.70
2022-11-03T12:43:41.883Z,52.60
2022-11-03T12:46:12.776Z,52.70
2022-11-03T12:48:48.965Z,52.70
2022-11-03T12:51:15.440Z,52.60
2022-11-03T12:53:41.943Z,52.70
2022-11-03T12:56:12.770Z,52.60
2022-11-03T12:58:54.878Z,52.50
2022-11-03T13:01:21.528Z,52.50
2022-11-03T13:03:48.077Z,52.50
2022-11-03T13:11:55.356Z,52.40
2022-11-03T13:14:21.841Z,52.40
2022-11-03T13:16:48.310Z,52.50
2022-11-03T13:19:24.862Z,52.50
2022-11-03T13:24:42.793Z,52.50
2022-11-03T13:30:06.811Z,52.40
2022-11-03T13:35:17.351Z,52.30
2022-11-03T13:38:00.886Z,52.30
2022-11-03T13:46:00.824Z,52.50
2022-11-03T13:51:11.541Z,52.50
2022-11-03T13:59:28.500Z,52.30
2022-11-03T14:04:43.762Z,52.10
2022-11-03T14:07:10.856Z,52.30
2022-11-03T14:09:56.929Z,52.20
2022-11-03T14:12:24.574Z,52.10
2022-11-03T14:14:51.042Z,52.00
2022-11-03T14:17:17.518Z,51.90
2022-11-03T14:19:52.649Z,52.00
2022-11-03T14:30:54.859Z,51.80
2022-11-03T14:33:36.994Z,51.90
2022-11-03T14:41:44.409Z,51.90
2022-11-03T14:49:45.553Z,52.00
2022-11-03T14:52:12.786Z,52.00
2022-11-03T14:54:39.754Z,51.90
2022-11-03T14:57:06.279Z,51.90
2022-11-03T14:59:32.755Z,51.90
2022-11-03T15:01:59.400Z,52.00
2022-11-03T15:04:42.960Z,52.50
2022-11-03T15:10:00.340Z,51.90
2022-11-03T15:12:30.898Z,51.90
2022-11-03T15:15:01.102Z,52.00
2022-11-03T15:20:24.912Z,51.90
2022-11-03T15:25:42.893Z,51.80
2022-11-03T15:28:09.627Z,51.80
2022-11-03T15:30:36.243Z,51.80
2022-11-03T15:33:02.764Z,51.80
2022-11-03T15:35:30.948Z,51.80
2022-11-03T15:37:57.462Z,52.00
2022-11-03T15:40:24.911Z,52.00
2022-11-03T15:42:51.386Z,51.90
2022-11-03T15:45:17.880Z,51.90
2022-11-03T15:47:49.128Z,52.00
2022-11-03T15:50:15.606Z,52.00
2022-11-03T15:55:32.300Z,52.00
2022-11-03T15:58:00.882Z,51.90
2022-11-03T16:03:17.318Z,52.10
2022-11-03T16:05:43.904Z,52.10
2022-11-03T16:08:10.849Z,52.10
2022-11-03T16:10:50.579Z,52.20
2022-11-03T16:13:37.020Z,52.20
2022-11-03T16:16:06.938Z,52.30
2022-11-03T16:18:43.069Z,52.30
2022-11-03T16:24:00.365Z,52.40
2022-11-03T16:29:18.964Z,52.60
2022-11-03T16:31:48.967Z,52.50
2022-11-03T16:34:19.019Z,52.60
2022-11-03T16:36:45.501Z,52.70
2022-11-03T16:39:11.961Z,52.70
2022-11-03T16:44:30.977Z,52.70
2022-11-03T16:46:57.465Z,52.80
2022-11-03T16:49:24.941Z,52.80
2022-11-03T16:51:51.430Z,52.90
2022-11-03T16:54:17.907Z,52.90
2022-11-03T16:56:54.351Z,52.90
2022-11-03T16:59:21.267Z,53.10
2022-11-03T17:01:49.035Z,53.20
2022-11-03T17:04:19.168Z,53.20
2022-11-03T17:06:48.994Z,53.20
2022-11-03T17:09:19.190Z,53.30
2022-11-03T17:11:45.660Z,53.30
2022-11-03T17:14:12.122Z,53.40
2022-11-03T17:16:42.996Z,53.50
2022-11-03T17:19:09.489Z,54.10
2022-11-03T17:21:35.980Z,53.50
2022-11-03T17:24:02.466Z,53.60
2022-11-03T17:26:28.935Z,53.50
2022-11-03T17:34:30.587Z,53.70
2022-11-03T17:36:57.066Z,53.90
2022-11-03T17:39:23.590Z,53.80
2022-11-03T17:41:50.061Z,53.90
2022-11-03T17:47:00.805Z,54.10
2022-11-03T17:49:30.997Z,54.10
2022-11-03T17:51:57.481Z,54.10
2022-11-03T17:54:25.029Z,54.30
2022-11-03T17:56:51.492Z,54.20
2022-11-03T17:59:17.967Z,54.20
2022-11-03T18:01:44.534Z,54.30
2022-11-03T18:07:01.436Z,54.30
2022-11-03T18:09:31.040Z,54.40
2022-11-03T18:11:57.519Z,54.50
2022-11-03T18:14:25.020Z,54.40
2022-11-03T18:16:51.488Z,54.50
2022-11-03T18:19:19.035Z,54.50
2022-11-03T18:21:45.529Z,54.60
2022-11-03T18:24:13.007Z,54.70
2022-11-03T18:26:43.057Z,54.60
2022-11-03T18:29:09.581Z,54.50
2022-11-03T18:31:36.096Z,54.60
2022-11-03T18:34:07.179Z,54.70
2022-11-03T18:39:25.066Z,54.70
2022-11-03T18:41:51.556Z,54.80
2022-11-03T18:44:19.036Z,54.80
2022-11-03T18:46:45.515Z,54.90
2022-11-03T18:49:12.004Z,54.80
2022-11-03T18:51:38.480Z,54.80
2022-11-03T18:54:05.031Z,54.90
2022-11-03T18:56:38.289Z,54.80
2022-11-03T18:59:04.925Z,54.90
2022-11-03T19:01:37.284Z,55.00
2022-11-03T19:04:03.938Z,55.10
2022-11-03T19:06:31.088Z,55.10
2022-11-03T19:09:07.198Z,55.10
2022-11-03T19:11:33.684Z,55.20
2022-11-03T19:16:55.729Z,55.20
2022-11-03T19:19:30.579Z,55.20
2022-11-03T19:21:57.087Z,55.20
2022-11-03T19:24:23.550Z,55.20
2022-11-03T19:26:55.104Z,55.20
2022-11-03T19:29:25.268Z,55.30
2022-11-03T19:31:55.107Z,55.30
2022-11-03T19:34:21.579Z,55.20
2022-11-03T19:36:48.050Z,55.20
2022-11-03T19:39:14.529Z,55.30
2022-11-03T19:41:43.101Z,55.20
2022-11-03T19:44:13.325Z,55.20
2022-11-03T19:46:39.979Z,55.20
2022-11-03T19:49:06.444Z,55.40
2022-11-03T19:51:32.940Z,55.50
2022-11-03T19:54:01.080Z,55.50
2022-11-03T19:59:19.134Z,55.60
2022-11-03T20:01:45.758Z,55.50
2022-11-03T20:04:12.273Z,55.70
2022-11-03T20:09:31.135Z,55.50
2022-11-03T20:11:57.602Z,55.50
2022-11-03T20:14:25.113Z,55.60
2022-11-03T20:16:51.639Z,55.60
2022-11-03T20:19:18.119Z,55.60
2022-11-03T20:24:35.519Z,55.50
2022-11-03T20:27:02.006Z,55.70
2022-11-03T20:29:34.573Z,55.60
2022-11-03T20:32:01.310Z,55.60
2022-11-03T20:34:43.190Z,55.70
2022-11-03T20:37:09.656Z,55.60
2022-11-03T20:39:36.125Z,55.60
2022-11-03T20:42:02.616Z,55.70
2022-11-03T20:44:37.271Z,55.70
2022-11-03T20:47:03.780Z,55.90
2022-11-03T20:49:30.263Z,55.80
2022-11-03T21:03:37.815Z,55.90
2022-11-03T21:06:11.632Z,56.00
2022-11-03T21:08:43.195Z,56.00
2022-11-03T21:11:09.657Z,56.00
2022-11-03T21:13:36.131Z,55.90
2022-11-03T21:16:23.597Z,56.00
2022-11-03T21:18:55.200Z,56.00
2022-11-03T21:21:25.191Z,56.10
2022-11-03T21:23:51.658Z,56.00
2022-11-03T21:26:18.122Z,55.90
2022-11-03T21:31:35.528Z,56.00
2022-11-03T21:34:02.004Z,56.10
2022-11-03T21:36:31.160Z,56.10
2022-11-03T21:39:01.200Z,56.00
2022-11-03T21:41:31.230Z,56.10
2022-11-03T21:43:57.709Z,56.30
2022-11-03T21:49:14.542Z,56.10
2022-11-03T21:54:37.228Z,56.10
2022-11-03T21:57:03.744Z,56.20
2022-11-03T21:59:37.380Z,56.20
2022-11-03T22:02:03.993Z,56.20
2022-11-03T22:04:31.185Z,56.30
2022-11-03T22:06:57.641Z,56.30
2022-11-03T22:09:25.244Z,56.30
2022-11-03T22:11:51.694Z,56.30
2022-11-03T22:14:18.167Z,56.50
2022-11-03T22:16:49.275Z,56.40
2022-11-03T22:22:06.474Z,56.50
2022-11-03T22:24:32.932Z,56.50
2022-11-03T22:27:01.198Z,56.50
2022-11-03T22:32:18.490Z,56.80
2022-11-03T22:34:44.977Z,56.90
2022-11-03T22:37:11.447Z,56.80
2022-11-03T22:39:37.918Z,56.60
2022-11-03T22:42:07.327Z,56.70
2022-11-03T22:44:37.258Z,56.60
2022-11-03T22:47:14.572Z,56.80
2022-11-03T22:49:49.255Z,56.80
2022-11-03T22:52:25.381Z,56.60
2022-11-03T22:54:55.280Z,56.50
2022-11-03T22:57:21.738Z,56.60
2022-11-03T23:05:28.740Z,57.10
2022-11-03T23:08:01.284Z,57.00
2022-11-03T23:10:31.314Z,57.80
2022-11-03T23:12:57.799Z,57.30
2022-11-03T23:15:24.265Z,57.40
2022-11-03T23:17:55.306Z,57.60
2022-11-03T23:20:21.793Z,57.80
2022-11-03T23:23:01.296Z,57.70
2022-11-03T23:25:31.288Z,57.80
2022-11-03T23:27:57.751Z,57.80
2022-11-03T23:30:25.313Z,57.80
2022-11-03T23:33:07.755Z,58.10
2022-11-03T23:35:37.947Z,59.00
2022-11-03T23:38:07.471Z,58.80
2022-11-03T23:40:34.144Z,59.30
2022-11-03T23:43:00.620Z,59.20
2022-11-03T23:45:27.074Z,59.20
2022-11-03T23:47:53.565Z,59.00
2022-11-03T23:50:25.472Z,58.90
2022-11-03T23:52:51.948Z,58.80
2022-11-03T23:55:18.426Z,58.60
2022-11-03T23:57:44.901Z,58.40
